Dallas Center, IA (50063)

4:37 PM CDT on September 01, 2014 (GMT -0500)
SBALDNERFARMS | Change Station
CLOSE
Current Station
Personal Weather Station
Location: Dallas Center, IA
Elevation: 1100 ft
Nearby Weather Stations

Elev 1100 ft 41.71 °N, 93.93 °W | Updated 8 minutes ago

Partly Cloudy
Partly Cloudy
77.7 °F
Feels Like 80 °F
N
7.0
Wind Variable Wind from WNW
Gusts 11.0 mph

Today
High -- | Low -- °F
--% Chance of Precip.
Yesterday
High -- | Low -- °F
Precip. -- in
6:41 AM 7:49 PM
Waxing Crescent, 44% visible
Pressure 29.84 in
Visibility 10.0 miles
Clouds Scattered Clouds 4400 ft
Scattered Clouds 8000 ft
Heat Index 80 °F
Dew Point 66 °F
Humidity 67%
Rainfall 0.00 in
Snow Depth Not available.
UV 4 out of 12
Pollen 3.90 out of 12
Air Quality Not available.
Flu Activity Not available.
METAR KPRO 012115Z AUTO 33007KT 10SM SCT044 SCT080 26/16 A2984 RMK AO2 T02550155

More Conditions Fewer Conditions

Pressure 29.84 in
Visibility 10.0 miles
Clouds Scattered Clouds 4400 ft
Scattered Clouds 8000 ft
Heat Index 80 °F
Dew Point 66 °F
Humidity 67%
Rainfall 0.00 in
Snow Depth Not available.
UV 4 out of 12
Pollen 3.90 out of 12
Air Quality Not available.
Flu Activity Not available.
METAR KPRO 012115Z AUTO 33007KT 10SM SCT044 SCT080 26/16 A2984 RMK AO2 T02550155

More Conditions Fewer Conditions

10-Day Weather Forecast

Almanac

Astronomy

Sep. 01, 2014 Rise Set
Actual Time 6:41 AM CDT 7:49 PM CDT
Civil Twilight 6:13 AM CDT 8:17 PM CDT
Nautical Twilight 5:39 AM CDT 8:51 PM CDT
Astronomical Twilight 5:03 AM CDT 9:27 PM CDT
Moon 1:33 PM CDT 11:45 PM CDT
Length of Visible Light 14h 04m
Length of Day
13h 07m
Tomorrow will be 2m 42s shorter.
Waxing Crescent, 44% of the Moon is Illuminated
Today
Waxing Crescent
Sep 2
First Quarter
Sep 8
Full
Sep 15
Last Quarter
Sep 24
New

Today's Extremes

State Highs State Lows

Community

WunderPhotos

Upload Photos

1,749,416 photos uploaded!

WunderBlogs® & News

Nearby

Snow Depth

Station Depth Elevation
No new snow has been reported.

Earthquake Activity

City Distance Mag. Time & Date
No recent earthquake activity has been reported nearby.
Minimum magnitude displayed is 2.5.

Coastal Water Temperatures

Place Temperature
No Stations Reporting

Nearby Weather Stations